createdAt,value
2022-10-12T00:01:11.606Z,99.90
2022-10-12T00:03:39.189Z,99.90
2022-10-12T00:06:15.169Z,99.90
2022-10-12T00:08:45.382Z,99.90
2022-10-12T00:11:20.714Z,99.90
2022-10-12T00:13:48.430Z,99.90
2022-10-12T00:16:19.227Z,99.90
2022-10-12T00:18:54.926Z,99.90
2022-10-12T00:21:24.481Z,99.90
2022-10-12T00:23:52.533Z,99.90
2022-10-12T00:26:24.764Z,99.90
2022-10-12T00:28:59.973Z,99.90
2022-10-12T00:31:29.503Z,99.90
2022-10-12T00:34:00.874Z,99.90
2022-10-12T00:36:32.789Z,99.90
2022-10-12T00:39:01.524Z,99.90
2022-10-12T00:41:37.887Z,99.90
2022-10-12T00:44:25.387Z,99.90
2022-10-12T00:46:55.360Z,99.90
2022-10-12T00:49:25.648Z,99.90
2022-10-12T00:51:59.872Z,99.90
2022-10-12T00:54:32.915Z,99.90
2022-10-12T00:57:03.803Z,99.90
2022-10-12T00:59:45.155Z,99.90
2022-10-12T01:02:14.188Z,99.90
2022-10-12T01:04:42.428Z,99.90
2022-10-12T01:07:10.724Z,99.90
2022-10-12T01:09:38.496Z,99.90
2022-10-12T01:12:09.323Z,99.90
2022-10-12T01:14:37.363Z,99.90
2022-10-12T01:17:35.338Z,99.90
2022-10-12T01:21:00.130Z,99.90
2022-10-12T01:24:08.656Z,99.90
2022-10-12T01:27:02.408Z,99.90
2022-10-12T01:30:05.346Z,99.90
2022-10-12T01:33:09.563Z,99.90
2022-10-12T01:36:07.602Z,99.90
2022-10-12T01:39:50.042Z,99.90
2022-10-12T01:42:35.062Z,99.90
2022-10-12T01:45:18.032Z,99.90
2022-10-12T01:47:52.668Z,99.90
2022-10-12T01:50:22.782Z,99.90
2022-10-12T01:53:06.343Z,99.90
2022-10-12T01:55:59.388Z,99.90
2022-10-12T01:58:43.173Z,99.90
2022-10-12T02:01:30.854Z,99.90
2022-10-12T02:04:17.334Z,99.90
2022-10-12T02:06:54.467Z,99.90
2022-10-12T02:09:28.057Z,99.90
2022-10-12T02:12:00.356Z,99.90
2022-10-12T02:14:45.513Z,99.90
2022-10-12T02:17:17.981Z,99.90
2022-10-12T02:19:58.105Z,99.90
2022-10-12T02:22:35.849Z,99.90
2022-10-12T02:25:07.686Z,99.90
2022-10-12T02:27:40.670Z,99.90
2022-10-12T02:30:09.527Z,99.90
2022-10-12T02:33:07.854Z,99.90
2022-10-12T02:35:43.991Z,99.90
2022-10-12T02:38:27.839Z,99.90
2022-10-12T02:41:06.555Z,99.90
2022-10-12T02:43:44.529Z,99.90
2022-10-12T02:46:12.804Z,99.90
2022-10-12T02:48:42.325Z,99.90
2022-10-12T02:51:11.792Z,99.90
2022-10-12T02:53:39.798Z,99.90
2022-10-12T02:56:13.150Z,99.90
2022-10-12T02:58:44.208Z,99.90
2022-10-12T03:01:12.133Z,99.90
2022-10-12T03:03:40.733Z,99.90
2022-10-12T03:06:08.718Z,99.90
2022-10-12T03:08:36.499Z,99.90
2022-10-12T03:11:07.201Z,99.90
2022-10-12T03:13:35.218Z,99.90
2022-10-12T03:16:05.248Z,99.90
2022-10-12T03:18:32.972Z,99.90
2022-10-12T03:21:00.862Z,99.90
2022-10-12T03:23:28.850Z,99.90
2022-10-12T03:25:56.393Z,99.90
2022-10-12T03:28:24.104Z,99.90
2022-10-12T03:30:51.836Z,99.90
2022-10-12T03:33:19.684Z,99.90
2022-10-12T03:35:47.687Z,99.90
2022-10-12T03:38:16.807Z,99.90
2022-10-12T03:40:45.389Z,99.90
2022-10-12T03:43:13.817Z,99.90
2022-10-12T03:45:41.385Z,99.90
2022-10-12T03:48:09.611Z,99.90
2022-10-12T03:50:37.299Z,99.90
2022-10-12T03:53:06.506Z,99.90
2022-10-12T03:55:34.660Z,99.90
2022-10-12T03:58:02.343Z,99.90
2022-10-12T04:00:29.960Z,99.90
2022-10-12T04:02:57.471Z,99.90
2022-10-12T04:05:25.218Z,99.90
2022-10-12T04:07:52.718Z,99.90
2022-10-12T04:10:20.470Z,99.90
2022-10-12T04:12:47.986Z,99.90
2022-10-12T04:15:18.369Z,99.90
2022-10-12T04:17:46.402Z,99.90
2022-10-12T04:20:14.086Z,99.90
2022-10-12T04:22:41.594Z,99.90
2022-10-12T04:25:10.681Z,99.90
2022-10-12T04:27:38.413Z,99.90
2022-10-12T04:30:06.912Z,99.90
2022-10-12T04:32:34.407Z,99.90
2022-10-12T04:35:01.985Z,99.90
2022-10-12T04:37:29.466Z,99.90
2022-10-12T04:39:57.037Z,99.90
2022-10-12T04:42:24.618Z,99.90
2022-10-12T04:44:52.157Z,99.90
2022-10-12T04:47:19.739Z,99.90
2022-10-12T04:49:47.182Z,99.90
2022-10-12T04:52:14.758Z,99.90
2022-10-12T04:54:42.224Z,99.90
2022-10-12T04:57:09.737Z,99.90
2022-10-12T04:59:37.246Z,99.90
2022-10-12T05:02:04.900Z,99.90
2022-10-12T05:04:32.535Z,99.90
2022-10-12T05:07:00.076Z,99.90
2022-10-12T05:09:27.623Z,99.90
2022-10-12T05:11:55.182Z,99.90
2022-10-12T05:14:22.665Z,99.90
2022-10-12T05:16:50.199Z,99.90
2022-10-12T05:19:17.659Z,99.90
2022-10-12T05:21:45.089Z,99.90
2022-10-12T05:24:12.626Z,99.90
2022-10-12T05:26:40.075Z,99.90
2022-10-12T05:29:07.704Z,99.90
2022-10-12T05:31:35.138Z,99.90
2022-10-12T05:34:02.656Z,99.90
2022-10-12T05:36:30.159Z,99.90
2022-10-12T05:38:57.682Z,99.90
2022-10-12T05:41:25.158Z,99.90
2022-10-12T05:43:53.856Z,99.90
2022-10-12T05:46:21.645Z,99.90
2022-10-12T05:48:49.157Z,99.90
2022-10-12T05:51:16.676Z,99.90
2022-10-12T05:53:44.110Z,99.90
2022-10-12T05:56:11.650Z,99.90
2022-10-12T05:58:39.168Z,99.90
2022-10-12T06:01:13.258Z,99.90
2022-10-12T06:03:40.866Z,99.90
2022-10-12T06:06:08.694Z,99.90
2022-10-12T06:08:36.253Z,99.90
2022-10-12T06:11:04.749Z,99.90
2022-10-12T06:13:32.347Z,99.90
2022-10-12T06:15:59.828Z,99.90
2022-10-12T06:18:27.443Z,99.90
2022-10-12T06:23:43.610Z,99.90
2022-10-12T06:26:11.055Z,99.90
2022-10-12T06:28:38.885Z,99.90
2022-10-12T06:31:06.636Z,99.90
2022-10-12T06:33:34.129Z,99.90
2022-10-12T06:36:01.614Z,99.90
2022-10-12T06:38:29.104Z,99.90
2022-10-12T06:40:56.575Z,99.90
2022-10-12T06:43:24.459Z,99.90
2022-10-12T06:45:51.957Z,99.90
2022-10-12T06:48:19.561Z,99.90
2022-10-12T06:50:48.250Z,99.90
2022-10-12T06:53:15.865Z,99.90
2022-10-12T06:55:43.399Z,99.90
2022-10-12T06:58:11.323Z,99.90
2022-10-12T07:00:38.993Z,99.90
2022-10-12T07:03:06.554Z,99.90
2022-10-12T07:05:34.048Z,99.90
2022-10-12T07:08:01.530Z,99.90
2022-10-12T07:10:29.328Z,99.90
2022-10-12T07:12:56.863Z,99.90
2022-10-12T07:15:24.328Z,99.90
2022-10-12T07:17:51.838Z,99.90
2022-10-12T07:20:19.452Z,99.90
2022-10-12T07:22:47.241Z,99.90
2022-10-12T07:25:14.853Z,99.90
2022-10-12T07:27:42.469Z,99.90
2022-10-12T07:30:11.311Z,99.90
2022-10-12T07:32:38.889Z,99.90
2022-10-12T07:35:06.866Z,99.90
2022-10-12T07:37:34.316Z,99.90
2022-10-12T07:40:01.927Z,99.90
2022-10-12T07:42:29.380Z,99.90
2022-10-12T07:44:56.918Z,99.90
2022-10-12T07:47:24.347Z,99.90
2022-10-12T07:49:51.838Z,99.90
2022-10-12T07:52:19.307Z,99.90
2022-10-12T07:54:46.821Z,99.90
2022-10-12T07:57:14.474Z,99.90
2022-10-12T07:59:41.935Z,99.90
2022-10-12T08:02:12.348Z,99.90
2022-10-12T08:04:40.017Z,99.90
2022-10-12T08:07:07.506Z,99.90
2022-10-12T08:09:36.449Z,99.90
2022-10-12T08:12:04.852Z,99.90
2022-10-12T08:14:32.421Z,99.90
2022-10-12T08:16:59.905Z,99.90
2022-10-12T08:19:30.625Z,99.90
2022-10-12T08:22:00.613Z,99.90
2022-10-12T08:24:28.058Z,99.90
2022-10-12T08:27:00.418Z,99.90
2022-10-12T08:29:28.789Z,99.90
2022-10-12T08:31:56.446Z,99.90
2022-10-12T08:34:25.457Z,99.90
2022-10-12T08:36:52.957Z,99.90
2022-10-12T08:39:20.408Z,99.90
2022-10-12T08:42:17.085Z,99.90
2022-10-12T08:44:47.495Z,99.90
2022-10-12T08:47:40.985Z,99.90
2022-10-12T08:50:33.295Z,99.90
2022-10-12T08:53:15.762Z,99.90
2022-10-12T08:55:45.811Z,99.90
2022-10-12T08:58:24.164Z,99.90
2022-10-12T09:00:59.500Z,99.90
2022-10-12T09:04:11.515Z,99.90
2022-10-12T09:07:06.885Z,99.90
2022-10-12T09:09:47.399Z,99.90
2022-10-12T09:12:42.557Z,99.90
2022-10-12T09:15:28.493Z,99.90
2022-10-12T09:17:58.855Z,99.90
2022-10-12T09:20:33.217Z,99.90
2022-10-12T09:23:30.918Z,99.90
2022-10-12T09:26:12.411Z,99.90
2022-10-12T09:28:58.415Z,99.90
2022-10-12T09:31:50.739Z,99.90
2022-10-12T09:34:19.399Z,99.90
2022-10-12T09:36:47.277Z,99.90
2022-10-12T09:39:32.402Z,99.90
2022-10-12T09:42:00.267Z,99.90
2022-10-12T09:44:44.354Z,99.90
2022-10-12T09:47:30.287Z,99.90
2022-10-12T09:50:04.817Z,99.90
2022-10-12T09:52:45.389Z,99.90
2022-10-12T09:55:16.106Z,99.90
2022-10-12T09:57:57.004Z,99.90
2022-10-12T10:00:33.097Z,99.90
2022-10-12T10:03:02.445Z,99.90
2022-10-12T10:05:36.358Z,99.90
2022-10-12T10:08:24.518Z,99.90
2022-10-12T10:10:55.656Z,99.90
2022-10-12T10:13:28.265Z,99.90
2022-10-12T10:16:11.448Z,99.90
2022-10-12T10:19:03.715Z,99.90
2022-10-12T10:21:38.241Z,99.90
2022-10-12T10:24:28.452Z,99.90
2022-10-12T10:27:05.455Z,99.90
2022-10-12T10:29:32.876Z,99.90
2022-10-12T10:32:26.734Z,99.90
2022-10-12T10:35:26.681Z,99.90
2022-10-12T10:37:56.738Z,99.90
2022-10-12T10:40:31.808Z,99.90
2022-10-12T10:43:28.040Z,99.90
2022-10-12T10:46:03.148Z,99.90
2022-10-12T10:48:58.100Z,99.90
2022-10-12T10:51:54.241Z,99.90
2022-10-12T10:54:27.028Z,99.90
2022-10-12T10:57:19.843Z,99.90
2022-10-12T11:00:37.409Z,99.90
2022-10-12T11:03:25.906Z,99.90
2022-10-12T11:06:25.501Z,99.90
2022-10-12T11:09:04.214Z,99.90
2022-10-12T11:11:35.685Z,99.80
2022-10-12T11:14:29.552Z,99.90
2022-10-12T11:17:07.390Z,99.90
2022-10-12T11:19:42.973Z,99.90
2022-10-12T11:22:22.704Z,97.30
2022-10-12T11:25:31.649Z,97.40
2022-10-12T11:27:59.282Z,98.70
2022-10-12T11:30:39.686Z,98.70
2022-10-12T11:33:14.674Z,95.50
2022-10-12T11:35:46.875Z,95.50
2022-10-12T11:38:23.030Z,92.60
2022-10-12T11:41:34.542Z,91.30
2022-10-12T11:44:13.586Z,88.80
2022-10-12T11:46:56.703Z,85.90
2022-10-12T11:49:28.716Z,84.50
2022-10-12T11:52:01.723Z,84.20
2022-10-12T11:54:33.852Z,82.80
2022-10-12T11:57:11.036Z,83.70
2022-10-12T11:59:47.437Z,85.90
2022-10-12T12:02:27.889Z,81.60
2022-10-12T12:04:56.563Z,78.40
2022-10-12T12:07:47.216Z,76.80
2022-10-12T12:10:35.294Z,79.00
2022-10-12T12:13:14.958Z,74.10
2022-10-12T12:15:49.943Z,76.50
2022-10-12T12:18:33.972Z,67.80
2022-10-12T12:21:08.475Z,70.80
2022-10-12T12:23:54.370Z,69.70
2022-10-12T12:26:29.082Z,69.30
2022-10-12T12:29:26.477Z,68.70
2022-10-12T12:32:00.834Z,64.40
2022-10-12T12:34:29.213Z,61.80
2022-10-12T12:36:58.619Z,63.80
2022-10-12T12:39:32.173Z,66.40
2022-10-12T12:42:03.722Z,71.90
2022-10-12T12:44:43.860Z,74.20
2022-10-12T12:47:43.430Z,72.10
2022-10-12T12:50:34.195Z,74.60
2022-10-12T12:53:28.648Z,77.30
2022-10-12T12:56:06.773Z,73.50
2022-10-12T12:59:08.767Z,73.30
2022-10-12T13:02:30.132Z,67.50
2022-10-12T13:05:27.969Z,71.30
2022-10-12T13:08:27.384Z,73.30
2022-10-12T13:11:40.852Z,74.80
2022-10-12T13:14:45.076Z,80.20
2022-10-12T13:17:48.845Z,84.40
2022-10-12T13:20:28.539Z,90.30
2022-10-12T13:22:58.364Z,92.90
2022-10-12T13:25:49.465Z,94.70
2022-10-12T13:28:29.442Z,98.70
2022-10-12T13:31:09.371Z,97.70
2022-10-12T13:33:46.528Z,98.30
2022-10-12T13:36:32.996Z,96.90
2022-10-12T13:39:19.288Z,99.90
2022-10-12T13:41:50.981Z,99.90
2022-10-12T13:44:27.722Z,99.90
2022-10-12T13:47:04.399Z,99.90
2022-10-12T13:49:43.636Z,98.00
2022-10-12T13:52:13.800Z,91.10
2022-10-12T13:54:47.576Z,88.40
2022-10-12T13:57:35.855Z,90.70
2022-10-12T14:00:14.978Z,87.10
2022-10-12T14:03:06.595Z,82.40
2022-10-12T14:05:42.587Z,78.10
2022-10-12T14:08:17.824Z,77.50
2022-10-12T14:10:45.765Z,72.10
2022-10-12T14:13:27.438Z,70.20
2022-10-12T14:15:56.313Z,70.70
2022-10-12T14:18:46.263Z,69.40
2022-10-12T14:21:26.897Z,69.00
2022-10-12T14:24:09.614Z,69.80
2022-10-12T14:26:47.392Z,65.70
2022-10-12T14:29:45.723Z,64.40
2022-10-12T14:32:13.103Z,66.00
2022-10-12T14:34:47.813Z,68.90
2022-10-12T14:37:15.163Z,68.00
2022-10-12T14:39:45.849Z,67.30
2022-10-12T14:42:31.979Z,65.80
2022-10-12T14:45:00.450Z,66.00
2022-10-12T14:47:38.560Z,65.80
2022-10-12T14:50:09.917Z,64.00
2022-10-12T14:52:46.993Z,66.50
2022-10-12T14:55:20.678Z,69.90
2022-10-12T14:57:49.628Z,69.20
2022-10-12T15:00:27.284Z,68.70
2022-10-12T15:02:55.169Z,68.60
2022-10-12T15:05:24.674Z,70.30
2022-10-12T15:07:52.918Z,72.10
2022-10-12T15:10:23.294Z,72.90
2022-10-12T15:12:51.760Z,73.60
2022-10-12T15:15:48.427Z,76.70
2022-10-12T15:18:15.941Z,80.60
2022-10-12T15:20:49.003Z,85.40
2022-10-12T15:23:17.207Z,88.60
2022-10-12T15:25:53.672Z,90.80
2022-10-12T15:28:22.772Z,93.20
2022-10-12T15:31:16.431Z,96.70
2022-10-12T15:33:40.420Z,99.90
2022-10-12T15:36:09.080Z,99.90
2022-10-12T15:38:36.796Z,99.90
2022-10-12T15:41:04.834Z,99.90
2022-10-12T15:43:33.831Z,99.90
2022-10-12T15:46:03.273Z,99.90
2022-10-12T15:48:30.801Z,99.90
2022-10-12T15:50:58.301Z,99.90
2022-10-12T15:53:26.599Z,99.90
2022-10-12T15:55:55.947Z,99.90
2022-10-12T15:58:23.512Z,99.90
2022-10-12T16:00:51.339Z,99.90
2022-10-12T16:03:26.077Z,99.90
2022-10-12T16:05:54.735Z,99.90
2022-10-12T16:08:22.291Z,99.90
2022-10-12T16:10:50.159Z,99.90
2022-10-12T16:13:17.833Z,99.90
2022-10-12T16:15:45.660Z,99.90
2022-10-12T16:18:15.665Z,99.90
2022-10-12T16:20:46.664Z,99.90
2022-10-12T16:23:25.423Z,99.90
2022-10-12T16:25:53.434Z,99.90
2022-10-12T16:28:22.572Z,99.90
2022-10-12T16:30:52.199Z,99.90
2022-10-12T16:33:20.153Z,99.90
2022-10-12T16:35:47.958Z,99.90
2022-10-12T16:38:15.492Z,99.90
2022-10-12T16:40:43.498Z,99.90
2022-10-12T16:43:11.512Z,99.90
2022-10-12T16:45:39.220Z,99.90
2022-10-12T16:48:06.891Z,99.90
2022-10-12T16:50:34.467Z,99.90
2022-10-12T16:53:01.940Z,99.90
2022-10-12T16:55:29.511Z,99.90
2022-10-12T16:57:57.025Z,99.90
2022-10-12T17:00:24.559Z,99.90
2022-10-12T17:02:55.266Z,99.90
2022-10-12T17:05:24.838Z,99.90
2022-10-12T17:07:52.414Z,99.90
2022-10-12T17:10:19.853Z,99.90
2022-10-12T17:12:47.314Z,99.90
2022-10-12T17:15:14.879Z,99.90
2022-10-12T17:17:42.390Z,99.90
2022-10-12T17:20:10.516Z,99.90
2022-10-12T17:22:38.014Z,99.90
2022-10-12T17:25:06.129Z,99.90
2022-10-12T17:27:33.628Z,99.90
2022-10-12T17:30:01.365Z,99.90
2022-10-12T17:32:28.843Z,99.90
2022-10-12T17:34:56.353Z,99.90
2022-10-12T17:37:23.890Z,99.90
2022-10-12T17:39:51.478Z,99.90
2022-10-12T17:42:20.745Z,99.90
2022-10-12T17:44:48.442Z,99.90
2022-10-12T17:47:16.324Z,99.90
2022-10-12T17:49:44.004Z,99.90
2022-10-12T17:52:11.769Z,99.90
2022-10-12T17:54:39.440Z,99.90
2022-10-12T17:57:06.954Z,99.90
2022-10-12T17:59:34.476Z,99.90
2022-10-12T18:02:02.052Z,99.90
2022-10-12T18:04:29.623Z,99.90
2022-10-12T18:06:57.159Z,99.90
2022-10-12T18:09:24.724Z,99.90
2022-10-12T18:11:52.285Z,99.90
2022-10-12T18:14:19.886Z,99.90
2022-10-12T18:16:47.412Z,99.90
2022-10-12T18:19:15.006Z,99.90
2022-10-12T18:21:42.537Z,99.90
2022-10-12T18:24:16.508Z,99.90
2022-10-12T18:26:48.214Z,99.90
2022-10-12T18:29:16.407Z,99.90
2022-10-12T18:31:44.076Z,99.90
2022-10-12T18:34:11.815Z,99.90
2022-10-12T18:36:41.014Z,99.90
2022-10-12T18:39:08.915Z,99.90
2022-10-12T18:41:36.614Z,99.90
2022-10-12T18:44:04.269Z,99.90
2022-10-12T18:46:35.033Z,99.90
2022-10-12T18:49:07.137Z,99.90
2022-10-12T18:51:42.022Z,99.90
2022-10-12T18:54:13.227Z,99.90
2022-10-12T18:56:41.976Z,99.90
2022-10-12T18:59:10.732Z,99.90
2022-10-12T19:01:38.536Z,99.90
2022-10-12T19:04:07.056Z,99.90
2022-10-12T19:06:38.677Z,99.90
2022-10-12T19:09:06.669Z,99.90
2022-10-12T19:11:34.842Z,99.90
2022-10-12T19:14:10.622Z,99.90
2022-10-12T19:16:38.079Z,99.90
2022-10-12T19:19:09.087Z,99.90
2022-10-12T19:21:36.691Z,99.90
2022-10-12T19:24:08.141Z,99.90
2022-10-12T19:26:36.291Z,99.90
2022-10-12T19:29:04.848Z,99.90
2022-10-12T19:31:42.392Z,99.90
2022-10-12T19:34:12.847Z,99.90
2022-10-12T19:36:41.873Z,99.90
2022-10-12T19:39:17.298Z,99.90
2022-10-12T19:41:45.414Z,99.90
2022-10-12T19:44:13.409Z,99.90
2022-10-12T19:46:42.886Z,99.90
2022-10-12T19:49:14.776Z,99.90
2022-10-12T19:51:43.057Z,99.90
2022-10-12T19:54:14.196Z,99.90
2022-10-12T19:56:42.030Z,99.90
2022-10-12T19:59:10.224Z,99.90
2022-10-12T20:01:39.545Z,99.90
2022-10-12T20:04:10.214Z,99.90
2022-10-12T20:06:38.743Z,99.90
2022-10-12T20:09:08.008Z,99.90
2022-10-12T20:11:36.708Z,99.90
2022-10-12T20:14:04.922Z,99.90
2022-10-12T20:16:35.039Z,99.90
2022-10-12T20:19:04.702Z,99.90
2022-10-12T20:21:32.294Z,99.90
2022-10-12T20:23:59.773Z,99.90
2022-10-12T20:26:27.610Z,99.90
2022-10-12T20:28:55.498Z,99.90
2022-10-12T20:31:24.777Z,99.90
2022-10-12T20:33:54.123Z,99.90
2022-10-12T20:36:30.504Z,99.90
2022-10-12T20:38:59.561Z,99.90
2022-10-12T20:41:28.183Z,99.90
2022-10-12T20:44:00.732Z,99.90
2022-10-12T20:46:30.109Z,99.90
2022-10-12T20:49:02.536Z,99.90
2022-10-12T20:51:44.730Z,99.90
2022-10-12T20:54:18.788Z,99.90
2022-10-12T20:56:49.659Z,99.90
2022-10-12T20:59:17.149Z,99.90
2022-10-12T21:01:45.701Z,99.90
2022-10-12T21:04:13.409Z,99.90
2022-10-12T21:06:42.793Z,99.90
2022-10-12T21:09:14.789Z,99.90
2022-10-12T21:11:43.847Z,99.90
2022-10-12T21:14:13.209Z,99.90
2022-10-12T21:16:40.722Z,99.90
2022-10-12T21:19:08.413Z,99.90
2022-10-12T21:21:35.908Z,99.90
2022-10-12T21:24:04.084Z,99.90
2022-10-12T21:26:32.023Z,99.90
2022-10-12T21:29:00.328Z,99.90
2022-10-12T21:31:32.350Z,99.90
2022-10-12T21:34:02.680Z,99.90
2022-10-12T21:36:31.204Z,99.90
2022-10-12T21:38:59.104Z,99.90
2022-10-12T21:41:29.141Z,99.90
2022-10-12T21:43:57.819Z,99.90
2022-10-12T21:46:29.760Z,99.90
2022-10-12T21:48:59.824Z,99.90
2022-10-12T21:51:29.800Z,99.90
2022-10-12T21:53:57.694Z,99.90
2022-10-12T21:56:31.494Z,99.90
2022-10-12T21:59:00.842Z,99.90
2022-10-12T22:01:34.843Z,99.90
2022-10-12T22:04:14.068Z,99.90
2022-10-12T22:06:42.454Z,99.90
2022-10-12T22:09:17.056Z,99.90
2022-10-12T22:11:45.955Z,99.90
2022-10-12T22:14:17.689Z,99.90
2022-10-12T22:16:45.819Z,99.90
2022-10-12T22:19:20.162Z,99.90
2022-10-12T22:21:49.485Z,99.90
2022-10-12T22:24:18.629Z,99.90
2022-10-12T22:26:46.779Z,99.90
2022-10-12T22:29:14.611Z,99.90
2022-10-12T22:31:42.884Z,99.90
2022-10-12T22:34:11.299Z,99.90
2022-10-12T22:36:38.870Z,99.90
2022-10-12T22:39:06.451Z,99.90
2022-10-12T22:41:33.951Z,99.90
2022-10-12T22:44:01.427Z,99.90
2022-10-12T22:46:28.952Z,99.90
2022-10-12T22:48:56.510Z,99.90
2022-10-12T22:51:36.367Z,99.90
2022-10-12T22:54:04.345Z,99.90
2022-10-12T22:56:32.443Z,99.90
2022-10-12T22:59:03.460Z,99.90
2022-10-12T23:01:30.917Z,99.90
2022-10-12T23:04:25.966Z,99.90
2022-10-12T23:06:53.459Z,99.90
2022-10-12T23:09:21.018Z,99.90
2022-10-12T23:11:51.122Z,99.90
2022-10-12T23:14:18.584Z,99.90
2022-10-12T23:16:46.089Z,99.90
2022-10-12T23:19:13.632Z,99.90
2022-10-12T23:21:41.423Z,99.90
2022-10-12T23:24:10.186Z,99.90
2022-10-12T23:26:37.806Z,99.90
2022-10-12T23:29:05.285Z,99.90
2022-10-12T23:31:35.839Z,99.90
2022-10-12T23:34:06.757Z,99.90
2022-10-12T23:36:34.783Z,99.90
2022-10-12T23:39:05.200Z,99.90
2022-10-12T23:41:33.226Z,99.90
2022-10-12T23:44:00.787Z,99.90
2022-10-12T23:46:28.356Z,99.90
2022-10-12T23:48:55.975Z,99.90
2022-10-12T23:51:23.553Z,99.90
2022-10-12T23:53:51.052Z,99.90
2022-10-12T23:56:18.604Z,99.90
2022-10-12T23:58:46.078Z,99.90
